Time;durP1;ratioP1;P1;durP2;ratioP2;P2;SDS_P1;SDS_P2;PMS_P1;PMS_P2;Temp;Humidity;BMP_temperature;BMP_pressure;BME280_temperature;BME280_humidity;BME280_pressure;Samples;Min_cycle;Max_cycle;Signal;HPM_P1;HPM_P2
2023/10/19 00:00:19;;;;;;;8.43;7.55;;;;;;;9.49;100.00;99328.63;5095563;28;20094;-78
2023/10/19 00:02:49;;;;;;;8.82;8.00;;;;;;;9.52;100.00;99327.72;5092764;28;20546;-78
2023/10/19 00:05:16;;;;;;;9.40;8.45;;;;;;;9.52;100.00;99317.09;5106862;28;20100;-78
2023/10/19 00:07:43;;;;;;;10.25;8.48;;;;;;;9.54;100.00;99320.00;5073339;28;20056;-79
2023/10/19 00:10:10;;;;;;;11.05;9.15;;;;;;;9.55;100.00;99324.84;5074991;28;20040;-78
2023/10/19 00:12:36;;;;;;;9.70;8.52;;;;;;;9.57;100.00;99314.50;5075154;28;20045;-78
2023/10/19 00:15:04;;;;;;;9.88;8.88;;;;;;;9.60;100.00;99312.81;5089055;28;20502;-78
2023/10/19 00:17:32;;;;;;;9.95;8.95;;;;;;;9.61;100.00;99314.25;5073986;28;20087;-78
2023/10/19 00:22:46;;;;;;;9.80;8.73;;;;;;;9.64;100.00;99302.72;5043605;28;20065;-78
2023/10/19 00:25:13;;;;;;;10.15;9.15;;;;;;;9.66;100.00;99308.28;5074759;28;20049;-78
2023/10/19 00:27:42;;;;;;;10.27;9.18;;;;;;;9.68;100.00;99306.63;5074090;28;20049;-79
2023/10/19 00:30:10;;;;;;;10.25;8.98;;;;;;;9.69;100.00;99308.09;5074618;28;20490;-79
2023/10/19 00:32:38;;;;;;;11.23;10.05;;;;;;;9.70;100.00;99295.53;5074159;28;20041;-79
2023/10/19 00:35:26;;;;;;;11.25;10.02;;;;;;;9.73;100.00;99296.53;5074529;28;20041;-78
2023/10/19 00:38:12;;;;;;;10.73;9.63;;;;;;;9.75;100.00;99299.44;5074404;28;20103;-78
2023/10/19 00:40:41;;;;;;;11.23;9.98;;;;;;;9.76;100.00;99304.28;5090013;28;20490;-77
2023/10/19 00:43:10;;;;;;;11.60;10.40;;;;;;;9.80;100.00;99304.09;5073229;28;20044;-78
2023/10/19 00:45:39;;;;;;;11.45;10.10;;;;;;;9.81;100.00;99297.56;5074200;28;20041;-77
2023/10/19 00:48:11;;;;;;;10.85;9.85;;;;;;;9.82;100.00;99299.78;5089905;28;20098;-77
2023/10/19 00:50:38;;;;;;;11.50;10.17;;;;;;;9.86;100.00;99291.59;5074298;28;20071;-77
2023/10/19 00:53:08;;;;;;;11.00;9.98;;;;;;;9.87;100.00;99293.78;5073088;28;20280;-77
2023/10/19 00:55:35;;;;;;;11.00;9.95;;;;;;;9.89;100.00;99290.66;5073869;28;20045;-77
2023/10/19 00:58:09;;;;;;;11.10;10.00;;;;;;;9.91;100.00;99282.94;5073192;28;20060;-78
2023/10/19 01:00:43;;;;;;;10.55;9.60;;;;;;;9.93;100.00;99281.28;5073916;28;20041;-79
2023/10/19 01:03:16;;;;;;;11.98;10.10;;;;;;;9.97;100.00;99281.06;5073819;28;20098;-78
2023/10/19 01:05:48;;;;;;;13.75;10.75;;;;;;;10.00;100.00;99277.44;5074102;28;20099;-78
2023/10/19 01:08:24;;;;;;;13.37;10.13;;;;;;;10.01;100.00;99274.31;5072878;28;20466;-77
2023/10/19 01:10:52;;;;;;;11.43;10.20;;;;;;;10.07;100.00;99286.94;5072690;28;20249;-77
2023/10/19 01:13:29;;;;;;;12.20;10.50;;;;;;;10.09;100.00;99276.56;5072198;28;20096;-77
2023/10/19 01:15:58;;;;;;;12.48;11.00;;;;;;;10.10;100.00;99270.78;5089033;28;20049;-77
2023/10/19 01:18:29;;;;;;;13.13;11.27;;;;;;;10.14;100.00;99273.94;5073354;28;20095;-77
2023/10/19 01:20:56;;;;;;;12.13;10.73;;;;;;;10.18;100.00;99274.47;5072715;28;20071;-77
2023/10/19 01:23:26;;;;;;;12.82;11.63;;;;;;;10.20;100.00;99264.13;5088727;28;20092;-77
2023/10/19 01:28:43;;;;;;;14.60;11.85;;;;;;;10.25;100.00;99268.75;5072208;28;20049;-77
2023/10/19 01:31:16;;;;;;;12.57;11.27;;;;;;;10.26;100.00;99267.56;5071702;28;20520;-77
2023/10/19 01:33:47;;;;;;;14.48;11.70;;;;;;;10.30;100.00;99260.09;5072295;28;20462;-77
2023/10/19 01:38:53;;;;;;;14.88;11.55;;;;;;;10.34;100.00;99257.94;5105426;27;20053;-77
2023/10/19 01:41:21;;;;;;;12.73;11.48;;;;;;;10.38;100.00;99254.34;5073273;28;20493;-77
2023/10/19 01:43:53;;;;;;;15.48;11.40;;;;;;;10.40;100.00;99252.66;5073235;28;20107;-77
2023/10/19 01:46:25;;;;;;;14.75;11.75;;;;;;;10.44;100.00;99250.50;5088761;28;20045;-77
2023/10/19 01:48:55;;;;;;;13.45;11.63;;;;;;;10.47;100.00;99251.50;5089010;28;20126;-77
2023/10/19 01:51:28;;;;;;;13.15;11.45;;;;;;;10.50;100.00;99245.22;5071662;28;20067;-77
2023/10/19 01:54:00;;;;;;;14.25;12.35;;;;;;;10.51;100.00;99239.44;5071936;28;20135;-77
2023/10/19 01:56:28;;;;;;;14.93;11.90;;;;;;;10.56;100.00;99246.00;5073152;28;20049;-78
2023/10/19 01:58:55;;;;;;;14.40;12.52;;;;;;;10.60;100.00;99251.81;5088540;28;20065;-78
2023/10/19 02:01:28;;;;;;;13.85;12.30;;;;;;;10.61;100.00;99251.34;5071436;28;20144;-77
2023/10/19 02:04:00;;;;;;;14.40;12.13;;;;;;;10.64;100.00;99239.75;5073438;28;20045;-77
2023/10/19 02:09:03;;;;;;;13.85;11.75;;;;;;;10.74;100.00;99240.31;5105869;28;20047;-78
2023/10/19 02:11:29;;;;;;;13.48;12.05;;;;;;;10.78;100.00;99238.16;5071188;28;20532;-77
2023/10/19 02:14:00;;;;;;;16.95;12.30;;;;;;;10.83;100.00;99234.03;5071437;28;20049;-77
2023/10/19 02:16:32;;;;;;;15.40;11.93;;;;;;;10.88;100.00;99236.72;5071328;28;20128;-77
2023/10/19 02:19:01;;;;;;;13.40;11.35;;;;;;;10.94;100.00;99232.16;5072183;28;20045;-77
2023/10/19 02:21:30;;;;;;;13.65;12.10;;;;;;;10.97;100.00;99227.81;5088138;28;20048;-77
2023/10/19 02:23:57;;;;;;;13.57;11.60;;;;;;;11.02;100.00;99238.50;5088389;28;20079;-77
2023/10/19 02:26:28;;;;;;;13.13;11.65;;;;;;;11.05;100.00;99228.81;5072149;28;20041;-77
2023/10/19 02:28:56;;;;;;;16.10;11.67;;;;;;;11.10;100.00;99230.03;5072979;28;20129;-77
2023/10/19 02:31:25;;;;;;;14.10;11.95;;;;;;;11.15;100.00;99229.34;5072416;28;20673;-77
2023/10/19 02:33:59;;;;;;;12.45;11.00;;;;;;;11.17;100.00;99237.59;5071575;28;20049;-78
2023/10/19 02:36:30;;;;;;;12.77;11.55;;;;;;;11.17;100.00;99234.91;5070940;28;20650;-78
2023/10/19 02:39:07;;;;;;;14.77;11.88;;;;;;;11.17;100.00;99235.66;5072919;28;20051;-79
2023/10/19 02:41:36;;;;;;;12.27;11.02;;;;;;;11.19;100.00;99225.25;5087375;28;20052;-78
2023/10/19 02:44:19;;;;;;;14.68;11.32;;;;;;;11.22;100.00;99224.25;5091744;28;20044;-78
2023/10/19 02:46:46;;;;;;;14.57;10.95;;;;;;;11.26;100.00;99224.03;5093569;28;20071;-77
2023/10/19 02:49:18;;;;;;;12.43;11.13;;;;;;;11.28;100.00;99219.69;5092677;28;20165;-78
2023/10/19 02:51:48;;;;;;;15.15;10.98;;;;;;;11.31;100.00;99212.66;5093068;28;20090;-78
2023/10/19 02:54:20;;;;;;;13.30;10.90;;;;;;;11.34;100.00;99219.69;5091839;28;20043;-78
2023/10/19 02:56:56;;;;;;;15.27;11.00;;;;;;;11.38;100.00;99220.19;5092736;28;20527;-78
2023/10/19 02:59:25;;;;;;;14.20;10.57;;;;;;;11.40;100.00;99219.72;5092742;28;20048;-78
2023/10/19 03:02:00;;;;;;;12.43;10.55;;;;;;;11.43;100.00;99221.41;5091647;28;20486;-78
2023/10/19 03:04:28;;;;;;;12.93;10.80;;;;;;;11.45;100.00;99222.41;5092511;28;20036;-78
2023/10/19 03:06:58;;;;;;;13.18;9.23;;;;;;;11.47;100.00;99219.97;5092739;28;20484;-78
2023/10/19 03:11:59;;;;;;;14.52;9.85;;;;;;;11.56;100.00;99219.75;5090623;28;20048;-78
2023/10/19 03:14:27;;;;;;;11.30;9.38;;;;;;;11.60;100.00;99211.50;5092157;28;20879;-78
2023/10/19 03:16:55;;;;;;;12.63;9.55;;;;;;;11.60;100.00;99220.22;5092813;28;20495;-79
2023/10/19 03:19:22;;;;;;;10.45;9.43;;;;;;;11.63;100.00;99216.59;5090775;28;20552;-77
2023/10/19 03:21:49;;;;;;;12.70;9.85;;;;;;;11.64;100.00;99212.72;5091343;28;20045;-78
2023/10/19 03:24:35;;;;;;;13.23;10.18;;;;;;;11.66;100.00;99210.31;5090810;28;20520;-78
2023/10/19 03:27:12;;;;;;;10.25;9.18;;;;;;;11.68;100.00;99207.88;5090693;28;20107;-78
2023/10/19 03:29:40;;;;;;;11.52;9.55;;;;;;;11.70;100.00;99205.47;5092544;28;20091;-78
2023/10/19 03:32:07;;;;;;;16.52;9.35;;;;;;;11.73;100.00;99203.78;5092467;28;20060;-77
2023/10/19 03:34:37;;;;;;;10.98;9.40;;;;;;;11.74;100.00;99202.56;5092215;28;20510;-77
2023/10/19 03:37:07;;;;;;;13.90;8.82;;;;;;;11.75;100.00;99197.97;5092558;28;20049;-79
2023/10/19 03:39:37;;;;;;;12.18;9.35;;;;;;;11.76;100.00;99194.81;5090167;28;20059;-79
2023/10/19 03:42:07;;;;;;;14.60;9.55;;;;;;;11.78;100.00;99189.75;5090855;28;20339;-80
2023/10/19 03:44:53;;;;;;;9.20;8.30;;;;;;;11.80;100.00;99189.28;5092299;28;20131;-80
2023/10/19 03:47:20;;;;;;;10.40;9.00;;;;;;;11.82;100.00;99187.56;5090297;28;20049;-79
2023/10/19 03:49:48;;;;;;;9.52;8.48;;;;;;;11.85;100.00;99189.28;5090982;28;20072;-79
2023/10/19 03:54:42;;;;;;;14.35;8.35;;;;;;;11.90;100.00;99188.56;5086978;28;20136;-79
2023/10/19 03:57:12;;;;;;;11.10;8.52;;;;;;;11.92;100.00;99186.13;5090267;28;20457;-79
2023/10/19 03:59:40;;;;;;;10.35;7.75;;;;;;;11.95;100.00;99185.16;5091719;28;20703;-77
2023/10/19 04:02:13;;;;;;;10.02;8.32;;;;;;;11.97;100.00;99182.00;5090890;28;20045;-77
2023/10/19 04:04:43;;;;;;;8.43;7.50;;;;;;;11.97;100.00;99174.72;5093940;28;20141;-77
2023/10/19 04:07:16;;;;;;;8.30;7.50;;;;;;;11.99;100.00;99179.59;5093788;28;20056;-78
2023/10/19 04:12:31;;;;;;;8.75;6.95;;;;;;;12.02;100.00;99176.66;5094832;28;20047;-77
2023/10/19 04:15:17;;;;;;;10.20;7.13;;;;;;;12.03;100.00;99174.72;5077153;28;20053;-77
2023/10/19 04:17:48;;;;;;;6.70;6.03;;;;;;;12.05;100.00;99172.28;5093572;28;20048;-78
2023/10/19 04:22:47;;;;;;;6.55;5.95;;;;;;;12.10;100.00;99168.88;5095331;28;20509;-78
2023/10/19 04:25:16;;;;;;;6.88;5.80;;;;;;;12.10;100.00;99158.22;5094503;28;20503;-77
2023/10/19 04:27:43;;;;;;;9.30;5.97;;;;;;;12.09;100.00;99158.69;5094858;28;20106;-78
2023/10/19 04:30:16;;;;;;;11.38;5.47;;;;;;;12.09;100.00;99162.09;5094782;28;20130;-77
2023/10/19 04:32:43;;;;;;;8.25;5.35;;;;;;;12.10;100.00;99170.81;5095065;28;20064;-77
2023/10/19 04:35:13;;;;;;;6.25;4.95;;;;;;;12.06;100.00;99173.00;5093308;28;20131;-77
2023/10/19 04:37:42;;;;;;;7.68;4.78;;;;;;;11.98;100.00;99176.19;5092494;28;20055;-77
2023/10/19 04:40:10;;;;;;;4.75;4.45;;;;;;;11.93;100.00;99176.19;5094873;28;20131;-77
2023/10/19 04:42:39;;;;;;;4.97;4.32;;;;;;;11.87;100.00;99183.47;5094857;28;20048;-77
2023/10/19 04:45:06;;;;;;;4.88;3.83;;;;;;;11.83;100.00;99180.31;5093242;28;20040;-77
2023/10/19 04:47:36;;;;;;;6.00;4.07;;;;;;;11.80;100.00;99173.28;5094601;28;20080;-77
2023/10/19 04:50:06;;;;;;;4.68;3.45;;;;;;;11.79;100.00;99177.16;5093765;28;20413;-78
2023/10/19 04:52:33;;;;;;;6.30;3.55;;;;;;;11.78;100.00;99175.69;5092790;28;20040;-78
2023/10/19 04:55:01;;;;;;;3.60;3.30;;;;;;;11.75;100.00;99169.38;5094354;28;20583;-78
2023/10/19 04:57:28;;;;;;;10.60;3.10;;;;;;;11.75;100.00;99174.69;5094158;28;20071;-78
2023/10/19 04:59:55;;;;;;;6.53;3.13;;;;;;;11.74;100.00;99173.25;5094862;28;20048;-78
2023/10/19 05:02:22;;;;;;;3.00;2.78;;;;;;;11.78;100.00;99189.03;5093081;28;20048;-78
2023/10/19 05:04:48;;;;;;;4.28;3.10;;;;;;;11.80;100.00;99186.59;5094623;28;20048;-77
2023/10/19 05:07:18;;;;;;;3.38;2.40;;;;;;;11.81;100.00;99188.06;5093971;28;20615;-77
2023/10/19 05:09:46;;;;;;;5.15;2.72;;;;;;;11.83;100.00;99185.63;5094611;28;20044;-77
2023/10/19 05:12:14;;;;;;;5.95;2.75;;;;;;;11.85;100.00;99193.88;5092814;28;20484;-77
2023/10/19 05:14:42;;;;;;;2.63;2.40;;;;;;;11.88;100.00;99198.97;5093042;28;20045;-77
2023/10/19 05:17:10;;;;;;;6.13;2.40;;;;;;;11.91;100.00;99191.94;5092364;28;20144;-79
2023/10/19 05:19:38;;;;;;;4.15;2.20;;;;;;;11.95;100.00;99193.16;5092335;28;20040;-79
2023/10/19 05:22:07;;;;;;;7.18;2.75;;;;;;;12.00;100.00;99202.34;5094039;28;20128;-79
2023/10/19 05:24:35;;;;;;;7.43;2.47;;;;;;;12.03;100.00;99199.44;5094078;28;20533;-79
2023/10/19 05:27:02;;;;;;;4.85;2.15;;;;;;;12.02;100.00;99195.31;5094501;28;20152;-78
2023/10/19 05:29:32;;;;;;;3.70;2.05;;;;;;;12.05;100.00;99203.56;5092432;28;20058;-79
2023/10/19 05:32:00;;;;;;;2.03;1.60;;;;;;;12.06;100.00;99210.34;5094224;28;20068;-79
2023/10/19 05:34:29;;;;;;;4.72;1.92;;;;;;;12.06;100.00;99208.41;5092238;28;20131;-79
2023/10/19 05:36:58;;;;;;;3.20;1.75;;;;;;;12.08;100.00;99218.59;5091470;28;20056;-78
2023/10/19 05:39:28;;;;;;;1.90;1.70;;;;;;;12.11;100.00;99212.28;5092286;28;20052;-77
2023/10/19 05:41:55;;;;;;;3.80;1.85;;;;;;;12.14;100.00;99211.31;5094330;28;20041;-79
2023/10/19 05:44:24;;;;;;;2.97;1.88;;;;;;;12.17;100.00;99213.03;5092564;28;20048;-80
2023/10/19 05:46:51;;;;;;;3.28;1.58;;;;;;;12.19;100.00;99216.66;5094622;28;20044;-77
2023/10/19 05:49:17;;;;;;;6.80;1.75;;;;;;;12.21;100.00;99221.50;5093935;28;20047;-77
2023/10/19 05:51:44;;;;;;;2.75;1.67;;;;;;;12.22;100.00;99215.69;5093691;28;20045;-76
2023/10/19 05:54:12;;;;;;;2.85;1.70;;;;;;;12.24;100.00;99225.88;5091992;28;20492;-75
2023/10/19 05:56:39;;;;;;;5.03;1.60;;;;;;;12.24;100.00;99229.25;5093238;28;20536;-75
2023/10/19 05:59:06;;;;;;;6.05;1.45;;;;;;;12.25;100.00;99228.06;5093760;28;20073;-78
2023/10/19 06:01:33;;;;;;;7.32;1.88;;;;;;;12.28;100.00;99224.41;5092036;28;20045;-77
2023/10/19 06:04:00;;;;;;;2.08;1.60;;;;;;;12.29;100.00;99225.13;5093616;28;20040;-75
2023/10/19 06:06:26;;;;;;;3.88;1.52;;;;;;;12.31;100.00;99225.38;5091274;28;20051;-78
2023/10/19 06:08:53;;;;;;;3.33;1.55;;;;;;;12.31;100.00;99223.44;5092268;28;20116;-77
2023/10/19 06:11:21;;;;;;;3.90;1.60;;;;;;;12.33;100.00;99229.03;5092868;28;20051;-76
2023/10/19 06:13:47;;;;;;;1.95;1.67;;;;;;;12.36;100.00;99232.66;5092587;28;20452;-77
2023/10/19 06:16:14;;;;;;;2.92;1.48;;;;;;;12.37;100.00;99231.44;5091649;28;20072;-78
2023/10/19 06:18:43;;;;;;;5.28;1.52;;;;;;;12.38;100.00;99221.50;5091826;28;20118;-77
2023/10/19 06:21:10;;;;;;;6.43;1.65;;;;;;;12.39;100.00;99228.28;5092580;28;20040;-77
2023/10/19 06:23:37;;;;;;;3.65;1.60;;;;;;;12.39;100.00;99228.28;5091714;28;20051;-77
2023/10/19 06:26:12;;;;;;;6.47;1.90;;;;;;;12.41;100.00;99234.56;5092803;28;20040;-77
2023/10/19 06:28:40;;;;;;;8.80;2.13;;;;;;;12.41;100.00;99228.50;5091670;28;20052;-77
2023/10/19 06:31:08;;;;;;;7.15;2.10;;;;;;;12.42;100.00;99228.00;5093117;28;20048;-77
2023/10/19 06:33:35;;;;;;;2.90;1.83;;;;;;;12.42;100.00;99229.94;5092376;28;20492;-79
2023/10/19 06:36:03;;;;;;;7.55;1.77;;;;;;;12.43;100.00;99237.47;5093176;28;20052;-77
2023/10/19 06:38:31;;;;;;;2.55;1.65;;;;;;;12.43;100.00;99228.75;5092302;28;20049;-77
2023/10/19 06:41:00;;;;;;;6.20;2.08;;;;;;;12.44;100.00;99235.53;5091907;28;20144;-77
2023/10/19 06:43:28;;;;;;;3.83;1.65;;;;;;;12.42;100.00;99232.63;5092684;28;20505;-77
2023/10/19 06:46:00;;;;;;;8.55;2.00;;;;;;;12.42;100.00;99238.69;5093168;28;20045;-81
2023/10/19 06:48:27;;;;;;;5.25;2.13;;;;;;;12.42;100.00;99233.34;5090423;28;20044;-77
2023/10/19 06:50:53;;;;;;;2.85;1.85;;;;;;;12.44;100.00;99240.88;5091364;28;20051;-81
2023/10/19 06:53:21;;;;;;;14.18;1.90;;;;;;;12.46;100.00;99241.13;5090896;28;20055;-80
2023/10/19 06:55:48;;;;;;;8.20;2.00;;;;;;;12.49;100.00;99254.22;5091320;28;20048;-77
2023/10/19 06:58:15;;;;;;;14.25;3.55;;;;;;;12.50;100.00;99249.59;5092416;28;20484;-78
2023/10/19 07:00:44;;;;;;;5.28;2.80;;;;;;;12.53;100.00;99259.31;5092613;28;20037;-78
2023/10/19 07:03:13;;;;;;;10.68;2.65;;;;;;;12.54;100.00;99264.16;5092100;28;20036;-77
2023/10/19 07:05:40;;;;;;;6.93;2.72;;;;;;;12.57;100.00;99262.44;5091295;28;20110;-76
2023/10/19 07:08:07;;;;;;;4.97;2.78;;;;;;;12.59;100.00;99266.09;5091137;28;20114;-77
2023/10/19 07:10:34;;;;;;;10.75;3.38;;;;;;;12.60;100.00;99269.50;5092491;28;20036;-77
2023/10/19 07:13:01;;;;;;;3.22;2.15;;;;;;;12.61;100.00;99271.66;5092674;28;20044;-76
2023/10/19 07:15:29;;;;;;;4.57;2.60;;;;;;;12.65;100.00;99277.50;5092025;28;20064;-76
2023/10/19 07:17:58;;;;;;;7.32;2.78;;;;;;;12.67;100.00;99272.38;5092144;28;20076;-76
2023/10/19 07:20:38;;;;;;;9.52;2.60;;;;;;;12.70;100.00;99268.03;5090338;28;20128;-76
2023/10/19 07:23:21;;;;;;;5.22;2.28;;;;;;;12.72;100.00;99276.28;5092668;28;20049;-77
2023/10/19 07:25:52;;;;;;;6.57;2.50;;;;;;;12.76;100.00;99282.09;5092806;28;20052;-76
2023/10/19 07:28:19;;;;;;;4.78;2.63;;;;;;;12.79;100.00;99286.44;5092192;28;20457;-76
2023/10/19 07:30:51;;;;;;;5.35;2.83;;;;;;;12.81;100.00;99285.94;5092655;28;20049;-77
2023/10/19 07:33:18;;;;;;;4.50;2.70;;;;;;;12.85;100.00;99283.75;5091886;28;20045;-76
2023/10/19 07:35:46;;;;;;;4.20;2.85;;;;;;;12.87;100.00;99283.97;5092492;28;20045;-76
2023/10/19 07:38:14;;;;;;;4.20;2.53;;;;;;;12.89;100.00;99284.22;5092748;28;20044;-76
2023/10/19 07:40:41;;;;;;;8.10;2.95;;;;;;;12.92;100.00;99275.25;5095581;28;20490;-77
2023/10/19 07:43:08;;;;;;;3.75;2.40;;;;;;;12.95;100.00;99279.59;5095653;28;20044;-76
2023/10/19 07:45:36;;;;;;;6.32;2.78;;;;;;;12.97;100.00;99291.25;5095871;28;20508;-81
2023/10/19 07:48:07;;;;;;;8.98;2.42;;;;;;;13.00;100.00;99279.59;5093884;28;20120;-81
2023/10/19 07:50:35;;;;;;;3.33;2.20;;;;;;;13.03;100.00;99283.94;5072614;28;20052;-81
2023/10/19 07:53:03;;;;;;;7.22;2.58;;;;;;;13.07;100.00;99282.97;5073566;28;20280;-82
2023/10/19 07:55:31;;;;;;;5.88;2.30;;;;;;;13.09;100.00;99288.56;5084976;28;20559;-81
2023/10/19 07:58:00;;;;;;;5.18;2.55;;;;;;;13.10;100.00;99285.38;5095111;28;20044;-81
2023/10/19 08:00:29;;;;;;;11.43;2.30;;;;;;;13.12;100.00;99285.63;5092633;28;20051;-80
2023/10/19 08:02:56;;;;;;;7.45;2.38;;;;;;;13.14;100.00;99287.81;5093361;28;20091;-81
2023/10/19 08:05:22;;;;;;;7.88;3.45;;;;;;;13.15;100.00;99287.31;5094361;28;20049;-83
2023/10/19 08:07:49;;;;;;;5.95;3.30;;;;;;;13.18;100.00;99288.31;5094950;28;20055;-83
2023/10/19 08:10:18;;;;;;;6.65;2.75;;;;;;;13.20;100.00;99289.25;5094481;28;20047;-83
2023/10/19 08:12:47;;;;;;;6.22;2.63;;;;;;;13.23;100.00;99284.88;5094328;28;20048;-83
2023/10/19 08:15:15;;;;;;;4.07;2.05;;;;;;;13.27;100.00;99288.00;5092581;28;20036;-83
2023/10/19 08:17:48;;;;;;;8.60;2.65;;;;;;;13.29;100.00;99283.63;5093211;28;20490;-83
2023/10/19 08:20:24;;;;;;;3.88;2.10;;;;;;;13.31;100.00;99278.53;5094598;28;20504;-87
2023/10/19 08:22:53;;;;;;;4.47;2.58;;;;;;;13.36;100.00;99285.06;5094667;28;20040;-81
2023/10/19 08:25:20;;;;;;;6.47;1.90;;;;;;;13.38;100.00;99277.28;5093739;28;20077;-80
2023/10/19 08:27:49;;;;;;;5.93;2.38;;;;;;;13.43;100.00;99286.50;5094668;28;20037;-80
2023/10/19 08:30:21;;;;;;;4.85;2.30;;;;;;;13.46;100.00;99280.88;5092486;28;20053;-80
2023/10/19 08:32:51;;;;;;;3.35;2.30;;;;;;;13.50;100.00;99280.63;5094425;28;20124;-80
2023/10/19 08:35:24;;;;;;;11.45;2.00;;;;;;;13.52;100.00;99281.59;5094096;28;20079;-80
2023/10/19 08:37:56;;;;;;;6.45;2.05;;;;;;;13.57;100.00;99285.47;5092427;28;20072;-80
2023/10/19 08:40:26;;;;;;;6.32;2.42;;;;;;;13.60;100.00;99281.78;5099763;28;20047;-80
2023/10/19 08:42:54;;;;;;;9.10;2.58;;;;;;;13.64;100.00;99277.63;5110869;28;20048;-81
2023/10/19 08:45:21;;;;;;;11.80;2.15;;;;;;;13.68;100.00;99278.06;5111251;27;20046;-80
2023/10/19 08:47:57;;;;;;;4.13;2.00;;;;;;;13.73;100.00;99268.56;5112891;27;20051;-80
2023/10/19 08:50:29;;;;;;;7.80;2.20;;;;;;;13.78;100.00;99270.50;5112141;27;20042;-80
2023/10/19 08:52:57;;;;;;;5.07;2.58;;;;;;;13.81;100.00;99272.19;5105272;28;20045;-81
2023/10/19 08:55:25;;;;;;;5.88;2.42;;;;;;;13.83;100.00;99275.06;5091466;28;20068;-78
2023/10/19 08:58:13;;;;;;;5.00;2.22;;;;;;;13.88;100.00;99277.00;5092284;28;20048;-76
2023/10/19 09:00:46;;;;;;;3.95;2.20;;;;;;;13.90;100.00;99271.88;5093409;28;20044;-77
2023/10/19 09:03:16;;;;;;;6.38;2.53;;;;;;;13.94;100.00;99272.34;5093597;28;20091;-76
2023/10/19 09:05:46;;;;;;;6.93;2.60;;;;;;;14.00;100.00;99272.28;5093621;28;20041;-77
2023/10/19 09:08:15;;;;;;;8.45;2.20;;;;;;;14.07;100.00;99269.06;5093471;28;20049;-78
2023/10/19 09:10:45;;;;;;;5.57;2.47;;;;;;;14.14;100.00;99273.88;5092360;28;20055;-78
2023/10/19 09:13:14;;;;;;;7.32;2.63;;;;;;;14.24;100.00;99276.97;5093019;28;20040;-78
2023/10/19 09:15:41;;;;;;;10.48;3.03;;;;;;;14.42;100.00;99275.63;5093524;28;20509;-78
2023/10/19 09:18:15;;;;;;;6.07;2.60;;;;;;;14.60;100.00;99272.28;5093636;28;20051;-79
2023/10/19 09:20:53;;;;;;;9.63;2.53;;;;;;;14.68;100.00;99267.84;5093949;28;20059;-81
2023/10/19 09:23:25;;;;;;;10.85;2.70;;;;;;;14.75;100.00;99263.88;5091709;28;20102;-77
2023/10/19 09:25:55;;;;;;;;;;;;;;;14.82;100.00;99261.34;5092865;28;20051;-76
2023/10/19 09:28:23;;;;;;;7.97;2.40;;;;;;;14.87;100.00;99267.88;5092119;28;19959;-77
2023/10/19 09:30:51;;;;;;;5.63;2.22;;;;;;;14.90;100.00;99267.59;5093484;28;20118;-76
2023/10/19 09:33:18;;;;;;;6.88;2.40;;;;;;;14.95;100.00;99266.81;5092768;28;20478;-76
2023/10/19 09:35:49;;;;;;;8.15;2.65;;;;;;;15.00;100.00;99273.34;5093121;28;20139;-78
2023/10/19 09:38:16;;;;;;;7.07;2.27;;;;;;;15.02;100.00;99266.25;5091365;28;20556;-77
2023/10/19 09:40:43;;;;;;;7.57;2.50;;;;;;;15.04;100.00;99270.38;5091765;28;20048;-75
2023/10/19 09:43:16;;;;;;;6.18;2.60;;;;;;;15.06;100.00;99259.88;5091172;28;20044;-76
2023/10/19 09:45:51;;;;;;;7.60;2.80;;;;;;;15.09;100.00;99269.59;5091713;28;20131;-76
2023/10/19 09:48:19;;;;;;;9.85;2.67;;;;;;;15.14;100.00;99258.06;5091897;28;20032;-76
2023/10/19 09:50:55;;;;;;;9.43;2.72;;;;;;;15.19;100.00;99257.28;5093087;28;20049;-76
2023/10/19 09:53:25;;;;;;;5.97;2.70;;;;;;;15.26;100.00;99254.72;5092392;28;20132;-76
2023/10/19 09:55:56;;;;;;;10.73;2.47;;;;;;;15.31;100.00;99253.22;5092729;28;20056;-77
2023/10/19 09:58:31;;;;;;;5.65;2.60;;;;;;;15.48;100.00;99250.31;5091997;28;20047;-76
2023/10/19 10:00:58;;;;;;;5.80;2.83;;;;;;;15.72;100.00;99249.50;5092654;28;20052;-77
2023/10/19 10:03:53;;;;;;;12.10;2.92;;;;;;;15.90;100.00;99236.06;5092226;28;20041;-81
2023/10/19 10:06:50;;;;;;;11.48;3.15;;;;;;;16.09;100.00;99233.31;5092509;28;20051;-76
2023/10/19 10:09:23;;;;;;;6.93;2.90;;;;;;;16.15;100.00;99238.59;5090671;28;20148;-75
2023/10/19 10:11:52;;;;;;;6.43;2.90;;;;;;;16.08;100.00;99237.22;5092373;28;20041;-75
2023/10/19 10:14:24;;;;;;;4.75;2.47;;;;;;;16.05;100.00;99235.56;5092364;28;20497;-76
2023/10/19 10:17:05;;;;;;;8.82;3.15;;;;;;;15.97;100.00;99242.81;5093003;28;20406;-76
2023/10/19 10:19:31;;;;;;;9.50;2.97;;;;;;;15.96;100.00;99242.06;5090724;28;20542;-81
2023/10/19 10:22:11;;;;;;;10.18;4.05;;;;;;;15.95;100.00;99242.59;5092827;28;20038;-77
2023/10/19 10:24:41;;;;;;;10.63;3.38;;;;;;;15.94;100.00;99246.50;5092879;28;20521;-77
2023/10/19 10:27:09;;;;;;;9.00;3.10;;;;;;;15.96;100.00;99249.41;5092043;28;20115;-85
2023/10/19 10:29:36;;;;;;;14.02;3.80;;;;;;;16.02;100.00;99261.47;5073892;28;20563;-82
2023/10/19 10:32:05;;;;;;;9.57;3.00;;;;;;;16.08;100.00;99247.25;5092943;28;20040;-76
2023/10/19 10:34:40;;;;;;;7.53;2.95;;;;;;;16.14;100.00;99247.88;5090902;28;20061;-76
2023/10/19 10:37:10;;;;;;;4.80;2.65;;;;;;;16.18;100.00;99229.50;5091231;28;20470;-81
2023/10/19 10:39:40;;;;;;;5.18;2.85;;;;;;;16.23;100.00;99234.78;5092468;28;20139;-77
2023/10/19 10:42:09;;;;;;;10.88;3.10;;;;;;;16.23;100.00;99232.09;5091387;28;20044;-76
2023/10/19 10:44:41;;;;;;;7.70;3.30;;;;;;;16.24;100.00;99230.88;5091930;28;20043;-77
2023/10/19 10:47:09;;;;;;;;;;;;;;;16.29;100.00;99232.03;5092412;28;20099;-76
2023/10/19 10:49:54;;;;;;;8.07;2.80;;;;;;;16.31;100.00;99232.22;5092080;28;19924;-75
2023/10/19 10:52:37;;;;;;;9.15;3.03;;;;;;;16.33;100.00;99229.75;5091615;28;20406;-78
2023/10/19 10:55:12;;;;;;;5.25;2.80;;;;;;;16.28;100.00;99217.88;5091639;28;20092;-76
2023/10/19 10:57:43;;;;;;;7.78;2.70;;;;;;;16.27;100.00;99213.75;5091910;28;20044;-78
2023/10/19 11:00:23;;;;;;;6.15;2.75;;;;;;;16.28;100.00;99206.41;5091624;28;20111;-75
2023/10/19 11:03:16;;;;;;;8.55;3.17;;;;;;;16.36;100.00;99209.94;5090456;28;20091;-77
2023/10/19 11:05:45;;;;;;;7.82;2.63;;;;;;;16.41;100.00;99211.03;5088644;28;20060;-77
2023/10/19 11:08:16;;;;;;;11.45;2.97;;;;;;;16.49;100.00;99212.59;5090255;28;20052;-77
2023/10/19 11:10:47;;;;;;;7.38;2.85;;;;;;;16.53;100.00;99202.28;5072968;28;20052;-77
2023/10/19 11:13:16;;;;;;;6.57;2.50;;;;;;;16.61;100.00;99199.69;5094907;28;20048;-75
2023/10/19 11:15:53;;;;;;;7.63;2.83;;;;;;;16.65;100.00;99195.47;5095444;28;20045;-75
2023/10/19 11:18:40;;;;;;;11.70;2.88;;;;;;;16.73;100.00;99198.28;5094892;28;20048;-75
2023/10/19 11:21:09;;;;;;;14.32;3.38;;;;;;;16.78;100.00;99208.19;5095138;28;20133;-76
2023/10/19 11:23:42;;;;;;;7.32;2.60;;;;;;;16.82;100.00;99208.56;5094477;28;20041;-76
2023/10/19 11:26:10;;;;;;;7.93;2.75;;;;;;;16.84;100.00;99205.38;5093648;28;20049;-76
2023/10/19 11:28:47;;;;;;;9.82;3.17;;;;;;;16.85;100.00;99199.47;5093655;28;20129;-77
2023/10/19 11:31:23;;;;;;;6.28;2.38;;;;;;;16.90;100.00;99200.63;5094053;28;20150;-76
2023/10/19 11:33:53;;;;;;;5.78;2.45;;;;;;;16.92;100.00;99190.78;5076930;28;20457;-76
2023/10/19 11:36:21;;;;;;;5.82;2.60;;;;;;;16.98;100.00;99196.06;5094170;28;20056;-76
2023/10/19 11:38:51;;;;;;;12.65;2.67;;;;;;;17.03;100.00;99197.19;5093265;28;20536;-76
2023/10/19 11:41:18;;;;;;;10.30;2.50;;;;;;;17.12;100.00;99202.13;5094898;28;20052;-76
2023/10/19 11:43:46;;;;;;;13.05;2.55;;;;;;;17.28;100.00;99193.69;5094926;28;20510;-76
2023/10/19 11:46:14;;;;;;;9.60;2.88;;;;;;;17.44;100.00;99183.81;5094979;28;20498;-76
2023/10/19 11:48:42;;;;;;;6.32;2.40;;;;;;;17.47;100.00;99190.13;5094718;28;20497;-77
2023/10/19 11:51:10;;;;;;;7.63;2.65;;;;;;;17.66;100.00;99183.31;5093460;28;20045;-76
2023/10/19 11:53:38;;;;;;;7.43;2.38;;;;;;;17.79;100.00;99189.88;5094312;28;20068;-76
2023/10/19 11:56:09;;;;;;;3.75;1.80;;;;;;;17.82;100.00;99186.13;5095195;28;20048;-77